Webcam Richtung Westen

Webcam27

Webcam Richtung Norden

Webcam36

Webcam Richtung Osten

Webcam09

Wetter(Würzburg):
271400Z AUTO 03006G11KT 70KM OVC021 OVC120 02/M03 Q1021
		
Fri 27.01.2023, 14:00 UTC

Sichtweite bis zu 70 km
Wind aus 30° mit 06kt, in Böen bis zu 11kt
bedeckter Himmel (8 Achtel) bei 2100 Fuß
bedeckter Himmel (8 Achtel) bei 12000 Fuß
Temperatur: 2 °C
Taupunkt: -3 °C
QNH: 1021 hPa
                         Heute        Morgen
                         27.01        28.01
--------------------------------------------
Beginn der Dämmerung     06:25        06:24
Sonnenaufgang            07:01        06:59
Sonnenuntergang          16:05        16:07
Ende der Dämmerung       16:40        16:42

Alle Zeiten in UTC